Flight Track Log - Related Links

Times and Time Zones

All times are in EDT time to prevent confusion due to time zone crossing. See the KAP927 flight status page for this flight to view local times or setup timezone preferences in your user account.

Time Position Orientation Groundspeed Altitude Reporting Facility
EDT Latitude Longitude Course Direction KTS MPH feet Rate Location/Type
Wed 07:02:32 AM 44.5281 -75.2939 148° Southeast 155 178 4,800  Level Boston Center
Wed 07:03:32 AM 44.4975 -75.2633 144° Southeast 155 178 5,300 600 Climbing Boston Center
Wed 07:04:32 AM 44.4628 -75.2356 150° Southeast 150 173 6,000 650 Climbing Boston Center
Wed 07:05:32 AM 44.4281 -75.2078 150° Southeast 145 167 6,600 600 Climbing Boston Center
Wed 07:06:32 AM 44.3936 -75.1742 145° Southeast 145 167 7,200 450 Climbing Boston Center
Wed 07:07:00 AM 44.4720 -75.2785 149° Southeast  Level Estimated
Wed 07:07:32 AM 44.3567 -75.1406 147° Southeast 145 167 7,500  Level Boston Center
Wed 07:08:00 AM 44.4366 -75.2481 148° Southeast  Level FlightAware Approximate
Wed 07:08:32 AM 44.3139 -75.1067 150° Southeast 163 188 7,500  Level Boston Center
Wed 07:09:32 AM 44.2708 -75.0669 147° Southeast 174 200 7,500 -50 Level Boston Center
Wed 07:10:32 AM 44.2300 -75.0333 149° Southeast 181 208 7,400  Descending Boston Center
Wed 07:11:32 AM 44.1892 -74.9997 149° Southeast 176 203 7,500 50 Climbing Boston Center
Wed 07:12:32 AM 44.1483 -74.9631 147° Southeast 176 203 7,500  Level Boston Center
Wed 07:13:32 AM 44.1072 -74.9294 150° Southeast 176 203 7,500  Level Boston Center
Wed 07:14:32 AM 44.0642 -74.8961 151° Southeast 176 203 7,500  Level Boston Center
Wed 07:15:32 AM 44.0233 -74.8597 147° Southeast 176 203 7,500 -50 Level Boston Center
Wed 07:16:32 AM 43.9844 -74.8264 148° Southeast 176 203 7,400 -50 Descending Boston Center
Wed 07:17:32 AM 43.9414 -74.7931 151° Southeast 176 203 7,400 100 Level Boston Center
Wed 07:18:32 AM 43.9025 -74.7597 148° Southeast 176 203 7,600 100 Climbing Boston Center
Wed 07:19:32 AM 43.8614 -74.7236 148° Southeast 176 203 7,600  Level Boston Center
Wed 07:20:32 AM 43.8225 -74.6875 146° Southeast 176 203 7,600  Level Boston Center
Wed 07:21:32 AM 43.7794 -74.6542 151° Southeast 176 203 7,600  Level Boston Center
Wed 07:22:32 AM 43.7383 -74.6183 148° Southeast 176 203 7,600  Level Boston Center
Wed 07:23:32 AM 43.6975 -74.5853 150° Southeast 176 203 7,600  Level Boston Center
Wed 07:24:32 AM 43.6564 -74.5522 150° Southeast 176 203 7,600  Level Boston Center
Wed 07:25:32 AM 43.6153 -74.5164 148° Southeast 176 203 7,600  Level Boston Center
Wed 07:26:32 AM 43.5742 -74.4806 148° Southeast 176 203 7,600  Level Boston Center
Wed 07:27:32 AM 43.5333 -74.4447 148° Southeast 176 203 7,600 -100 Level Boston Center
Wed 07:28:32 AM 43.4922 -74.4119 150° Southeast 176 203 7,400 -100 Descending Boston Center
Wed 07:29:32 AM 43.4489 -74.3733 147° Southeast 176 203 7,400 57 Level Boston Center
Wed 07:30:18 AM 43.4161 -74.3494 152° Southeast 175 201 7,500 78 Climbing Boston Center
Wed 07:30:49 AM 43.3956 -74.3344 152° Southeast 174 200 7,500 81 Level Boston Center
Wed 07:31:32 AM 43.3667 -74.3050 143° Southeast 176 203 7,600 100 Climbing Boston Center
Wed 07:31:49 AM 43.3564 -74.3019 168° South 173 199 7,600 -100 Level Boston Center
Wed 07:32:32 AM 43.3256 -74.2725 145° Southeast 171 197 7,500 -269 Descending Boston Center
Wed 07:32:56 AM 43.3069 -74.2606 155° Southeast 176 203 7,300 -500 Descending Boston Center
Wed 07:33:32 AM 43.2825 -74.2369 145° Southeast 182 209 7,000 -380 Descending Boston Center
Wed 07:34:15 AM 43.2494 -74.2103 150° Southeast 192 221 6,800 -300 Descending Boston Center
Wed 07:34:32 AM 43.2372 -74.2014 152° Southeast 182 209 6,700 -333 Descending Boston Center
Wed 07:35:09 AM 43.2103 -74.1806 151° Southeast 180 207 6,500 -300 Descending Boston Center
Wed 07:35:32 AM 43.1939 -74.1658 147° Southeast 177 204 6,400 -393 Descending Boston Center
Wed 07:36:10 AM 43.1672 -74.1453 151° Southeast 173 199 6,100 -500 Descending Boston Center
Wed 07:36:32 AM 43.1528 -74.1333 149° Southeast 177 204 5,900 -393 Descending Boston Center
Wed 07:37:11 AM 43.1258 -74.1128 151° Southeast 173 199 5,700 -400 Descending Boston Center
Wed 07:37:32 AM 43.1114 -74.1011 149° Southeast 177 204 5,500 -400 Descending Boston Center
Wed 07:38:11 AM 43.0847 -74.0803 150° Southeast 169 194 5,300 -300 Descending Boston Center
Wed 07:38:32 AM 43.0703 -74.0686 149° Southeast 172 198 5,200 -393 Descending Boston Center
Wed 07:39:12 AM 43.0456 -74.0508 152° Southeast 164 189 4,900 -400 Descending Boston Center
Wed 07:39:32 AM 43.0311 -74.0364 144° Southeast 172 198 4,800 -327 Descending Boston Center
Wed 07:40:07 AM 43.0083 -74.0217 155° Southeast 165 190 4,600 -400 Descending Boston Center
Wed 07:40:32 AM 42.9900 -74.0042 145° Southeast 172 198 4,400 -400 Descending Boston Center
Wed 07:41:07 AM 42.9692 -73.9894 153° Southeast 166 191 4,200 -300 Descending Boston Center
Wed 07:41:32 AM 42.9506 -73.9747 150° Southeast 167 192 4,100 -295 Descending Boston Center
Wed 07:42:08 AM 42.9281 -73.9628 159° South 164 189 3,900 -300 Descending Boston Center
Wed 07:42:32 AM 42.9114 -73.9453 142° Southeast 167 192 3,800 -269 Descending Boston Center
Wed 07:43:15 AM 42.8847 -73.9250 151° Southeast 161 185 3,600 -400 Descending Boston Center
Wed 07:43:32 AM 42.8703 -73.9189 163° South 161 185 3,400 -500 Descending Boston Center
Wed 07:44:15 AM 42.8433 -73.9042 158° South 158 182 3,100 4,100 Descending Boston Center
Wed 07:44:32 AM 42.8703 -73.9133 346° North 149 171 7,500 -490 Climbing Boston Center
Wed 07:45:04 AM 42.8100 -73.8892 164° South 153 176 2,700  Descending Boston Center
Wed 07:45:32 AM 42.8106 -73.8608 88° East 149 171 7,500 3,273 Climbing Boston Center
Wed 07:46:32 AM 42.7692 -73.8258 148° Southeast 149 171 7,500 -3,677 Level Boston Center
Wed 07:47:05 AM 42.7394 -73.8706 228° Southwest 115 132 1,800 -4,085 Descending Boston Center
Wed 07:48:06 AM 42.7211 -73.8389 128° Southeast 107 123 1,100 -689 Descending Boston Center
Wed 07:50:00 AM 42.7333 -73.8000 160° South  Level FlightAware Approximate
Wed 07:57:00 AM 42.7491 -73.8020 160° South  Level Estimated
Wed 07:58:00 AM 42.7491 -73.8020 160° South  Level Estimated
Wed 07:59:00 AM 42.7491 -73.8020 160° South  Level Estimated

Login

Don't have an account? Register now (free) for customized features, flight alerts, and more!